sensor_id;sensor_type;location;lat;lon;timestamp;P1;durP1;ratioP1;P2;durP2;ratioP2
73266;SDS011;61495;53.400;7.608;2022-12-17T00:00:44;32.88;;;11.75;;
73266;SDS011;61495;53.400;7.608;2022-12-17T00:03:29;33.97;;;12.75;;
73266;SDS011;61495;53.400;7.608;2022-12-17T00:06:13;30.27;;;13.77;;
73266;SDS011;61495;53.400;7.608;2022-12-17T00:08:57;33.30;;;12.82;;
73266;SDS011;61495;53.400;7.608;2022-12-17T00:11:41;33.38;;;12.13;;
73266;SDS011;61495;53.400;7.608;2022-12-17T00:17:09;30.55;;;10.95;;
73266;SDS011;61495;53.400;7.608;2022-12-17T00:19:53;33.13;;;14.02;;
73266;SDS011;61495;53.400;7.608;2022-12-17T00:25:21;27.27;;;12.30;;
73266;SDS011;61495;53.400;7.608;2022-12-17T00:28:08;29.00;;;12.40;;
73266;SDS011;61495;53.400;7.608;2022-12-17T00:30:53;29.08;;;12.20;;
73266;SDS011;61495;53.400;7.608;2022-12-17T00:33:37;31.13;;;12.77;;
73266;SDS011;61495;53.400;7.608;2022-12-17T00:39:06;32.35;;;12.82;;
73266;SDS011;61495;53.400;7.608;2022-12-17T00:44:34;28.25;;;11.88;;
73266;SDS011;61495;53.400;7.608;2022-12-17T00:47:18;33.55;;;13.27;;
73266;SDS011;61495;53.400;7.608;2022-12-17T00:50:02;32.58;;;12.52;;
73266;SDS011;61495;53.400;7.608;2022-12-17T00:52:46;32.63;;;12.60;;
73266;SDS011;61495;53.400;7.608;2022-12-17T00:55:30;30.60;;;13.75;;
73266;SDS011;61495;53.400;7.608;2022-12-17T00:58:14;35.85;;;12.23;;
73266;SDS011;61495;53.400;7.608;2022-12-17T01:03:43;31.58;;;12.18;;
73266;SDS011;61495;53.400;7.608;2022-12-17T01:06:27;31.40;;;11.77;;
73266;SDS011;61495;53.400;7.608;2022-12-17T01:09:11;31.52;;;12.68;;
73266;SDS011;61495;53.400;7.608;2022-12-17T01:11:55;28.95;;;12.68;;
73266;SDS011;61495;53.400;7.608;2022-12-17T01:14:39;32.85;;;12.27;;
73266;SDS011;61495;53.400;7.608;2022-12-17T01:17:26;34.97;;;14.32;;
73266;SDS011;61495;53.400;7.608;2022-12-17T01:20:10;32.22;;;14.07;;
73266;SDS011;61495;53.400;7.608;2022-12-17T01:25:38;29.92;;;11.70;;
73266;SDS011;61495;53.400;7.608;2022-12-17T01:28:22;33.33;;;13.75;;
73266;SDS011;61495;53.400;7.608;2022-12-17T01:31:08;37.47;;;14.77;;
73266;SDS011;61495;53.400;7.608;2022-12-17T01:33:53;38.50;;;14.82;;
73266;SDS011;61495;53.400;7.608;2022-12-17T01:36:37;36.00;;;13.50;;
73266;SDS011;61495;53.400;7.608;2022-12-17T01:42:08;28.40;;;12.10;;
73266;SDS011;61495;53.400;7.608;2022-12-17T01:44:54;32.97;;;13.45;;
73266;SDS011;61495;53.400;7.608;2022-12-17T01:50:37;34.15;;;13.82;;
73266;SDS011;61495;53.400;7.608;2022-12-17T01:53:25;36.80;;;12.95;;
73266;SDS011;61495;53.400;7.608;2022-12-17T01:56:17;34.55;;;13.05;;
73266;SDS011;61495;53.400;7.608;2022-12-17T02:01:46;37.10;;;11.93;;
73266;SDS011;61495;53.400;7.608;2022-12-17T02:04:30;35.22;;;12.80;;
73266;SDS011;61495;53.400;7.608;2022-12-17T02:10:33;30.65;;;11.95;;
73266;SDS011;61495;53.400;7.608;2022-12-17T02:16:26;33.53;;;12.40;;
73266;SDS011;61495;53.400;7.608;2022-12-17T02:28:00;26.45;;;10.68;;
73266;SDS011;61495;53.400;7.608;2022-12-17T02:30:44;29.65;;;10.95;;
73266;SDS011;61495;53.400;7.608;2022-12-17T02:33:48;25.48;;;10.68;;
73266;SDS011;61495;53.400;7.608;2022-12-17T02:36:34;34.05;;;11.75;;
73266;SDS011;61495;53.400;7.608;2022-12-17T02:39:18;37.40;;;12.40;;
73266;SDS011;61495;53.400;7.608;2022-12-17T02:42:02;27.15;;;10.98;;
73266;SDS011;61495;53.400;7.608;2022-12-17T02:44:47;29.17;;;11.52;;
73266;SDS011;61495;53.400;7.608;2022-12-17T02:47:32;29.75;;;12.55;;
73266;SDS011;61495;53.400;7.608;2022-12-17T02:50:16;31.60;;;12.10;;
73266;SDS011;61495;53.400;7.608;2022-12-17T02:55:45;31.65;;;11.57;;
73266;SDS011;61495;53.400;7.608;2022-12-17T03:01:14;32.92;;;11.13;;
73266;SDS011;61495;53.400;7.608;2022-12-17T03:03:58;33.58;;;10.85;;
73266;SDS011;61495;53.400;7.608;2022-12-17T03:06:42;30.65;;;10.98;;
73266;SDS011;61495;53.400;7.608;2022-12-17T03:09:27;32.83;;;11.43;;
73266;SDS011;61495;53.400;7.608;2022-12-17T03:12:11;38.25;;;13.60;;
73266;SDS011;61495;53.400;7.608;2022-12-17T03:14:55;31.80;;;12.13;;
73266;SDS011;61495;53.400;7.608;2022-12-17T03:20:23;34.58;;;12.50;;
73266;SDS011;61495;53.400;7.608;2022-12-17T03:25:52;44.50;;;13.18;;
73266;SDS011;61495;53.400;7.608;2022-12-17T03:28:37;40.80;;;14.38;;
73266;SDS011;61495;53.400;7.608;2022-12-17T03:31:21;46.17;;;14.95;;
73266;SDS011;61495;53.400;7.608;2022-12-17T03:36:49;41.03;;;12.23;;
73266;SDS011;61495;53.400;7.608;2022-12-17T03:42:17;33.35;;;11.45;;
73266;SDS011;61495;53.400;7.608;2022-12-17T03:45:01;33.45;;;12.13;;
73266;SDS011;61495;53.400;7.608;2022-12-17T03:47:46;38.13;;;12.95;;
73266;SDS011;61495;53.400;7.608;2022-12-17T03:53:14;35.50;;;12.10;;
73266;SDS011;61495;53.400;7.608;2022-12-17T03:58:42;35.42;;;11.57;;
73266;SDS011;61495;53.400;7.608;2022-12-17T04:01:26;45.40;;;15.02;;
73266;SDS011;61495;53.400;7.608;2022-12-17T04:04:10;42.55;;;13.10;;
73266;SDS011;61495;53.400;7.608;2022-12-17T04:09:38;44.72;;;13.48;;
73266;SDS011;61495;53.400;7.608;2022-12-17T04:15:06;46.63;;;13.65;;
73266;SDS011;61495;53.400;7.608;2022-12-17T04:17:51;43.38;;;14.32;;
73266;SDS011;61495;53.400;7.608;2022-12-17T04:20:35;49.17;;;14.50;;
73266;SDS011;61495;53.400;7.608;2022-12-17T04:26:03;41.45;;;14.32;;
73266;SDS011;61495;53.400;7.608;2022-12-17T04:28:47;49.58;;;16.15;;
73266;SDS011;61495;53.400;7.608;2022-12-17T04:31:30;54.53;;;17.25;;
73266;SDS011;61495;53.400;7.608;2022-12-17T04:36:58;42.30;;;15.63;;
73266;SDS011;61495;53.400;7.608;2022-12-17T04:42:27;40.90;;;13.95;;
73266;SDS011;61495;53.400;7.608;2022-12-17T04:45:11;46.53;;;15.30;;
73266;SDS011;61495;53.400;7.608;2022-12-17T04:48:02;43.35;;;15.77;;
73266;SDS011;61495;53.400;7.608;2022-12-17T04:50:47;46.45;;;15.77;;
73266;SDS011;61495;53.400;7.608;2022-12-17T04:53:31;45.95;;;15.32;;
73266;SDS011;61495;53.400;7.608;2022-12-17T04:56:15;50.95;;;17.42;;
73266;SDS011;61495;53.400;7.608;2022-12-17T04:58:59;51.25;;;14.30;;
73266;SDS011;61495;53.400;7.608;2022-12-17T05:01:43;50.88;;;18.65;;
73266;SDS011;61495;53.400;7.608;2022-12-17T05:04:27;57.80;;;18.45;;
73266;SDS011;61495;53.400;7.608;2022-12-17T05:07:11;56.42;;;18.35;;
73266;SDS011;61495;53.400;7.608;2022-12-17T05:09:55;45.88;;;15.93;;
73266;SDS011;61495;53.400;7.608;2022-12-17T05:12:39;43.97;;;15.32;;
73266;SDS011;61495;53.400;7.608;2022-12-17T05:15:24;51.72;;;15.30;;
73266;SDS011;61495;53.400;7.608;2022-12-17T05:18:18;50.95;;;16.80;;
73266;SDS011;61495;53.400;7.608;2022-12-17T05:21:02;47.47;;;15.60;;
73266;SDS011;61495;53.400;7.608;2022-12-17T05:26:30;45.17;;;14.23;;
73266;SDS011;61495;53.400;7.608;2022-12-17T05:29:14;51.67;;;16.55;;
73266;SDS011;61495;53.400;7.608;2022-12-17T05:31:58;49.65;;;16.02;;
73266;SDS011;61495;53.400;7.608;2022-12-17T05:34:42;49.20;;;16.15;;
73266;SDS011;61495;53.400;7.608;2022-12-17T05:37:26;59.65;;;17.50;;
73266;SDS011;61495;53.400;7.608;2022-12-17T05:40:10;58.40;;;16.63;;
73266;SDS011;61495;53.400;7.608;2022-12-17T05:42:58;48.13;;;17.17;;
73266;SDS011;61495;53.400;7.608;2022-12-17T05:45:44;43.80;;;14.73;;
73266;SDS011;61495;53.400;7.608;2022-12-17T05:48:29;51.30;;;16.55;;
73266;SDS011;61495;53.400;7.608;2022-12-17T05:51:14;50.03;;;16.00;;
73266;SDS011;61495;53.400;7.608;2022-12-17T05:53:58;47.10;;;17.02;;
73266;SDS011;61495;53.400;7.608;2022-12-17T05:56:42;48.40;;;15.80;;
73266;SDS011;61495;53.400;7.608;2022-12-17T05:59:26;46.90;;;16.70;;
73266;SDS011;61495;53.400;7.608;2022-12-17T06:02:10;50.70;;;16.27;;
73266;SDS011;61495;53.400;7.608;2022-12-17T06:04:54;53.95;;;18.95;;
73266;SDS011;61495;53.400;7.608;2022-12-17T06:07:38;52.45;;;17.17;;
73266;SDS011;61495;53.400;7.608;2022-12-17T06:13:06;51.33;;;15.10;;
73266;SDS011;61495;53.400;7.608;2022-12-17T06:15:50;49.58;;;15.73;;
73266;SDS011;61495;53.400;7.608;2022-12-17T06:21:19;54.85;;;15.80;;
73266;SDS011;61495;53.400;7.608;2022-12-17T06:24:03;50.92;;;18.77;;
73266;SDS011;61495;53.400;7.608;2022-12-17T06:26:48;63.95;;;18.90;;
73266;SDS011;61495;53.400;7.608;2022-12-17T06:29:32;53.75;;;17.48;;
73266;SDS011;61495;53.400;7.608;2022-12-17T06:32:17;52.30;;;16.60;;
73266;SDS011;61495;53.400;7.608;2022-12-17T06:35:00;54.72;;;19.13;;
73266;SDS011;61495;53.400;7.608;2022-12-17T06:37:45;61.58;;;17.15;;
73266;SDS011;61495;53.400;7.608;2022-12-17T06:40:29;55.67;;;16.77;;
73266;SDS011;61495;53.400;7.608;2022-12-17T06:43:13;57.35;;;16.48;;
73266;SDS011;61495;53.400;7.608;2022-12-17T06:45:57;55.05;;;18.45;;
73266;SDS011;61495;53.400;7.608;2022-12-17T06:48:41;57.25;;;16.48;;
73266;SDS011;61495;53.400;7.608;2022-12-17T06:51:25;62.80;;;19.88;;
73266;SDS011;61495;53.400;7.608;2022-12-17T06:54:10;61.08;;;18.52;;
73266;SDS011;61495;53.400;7.608;2022-12-17T06:56:58;50.92;;;18.17;;
73266;SDS011;61495;53.400;7.608;2022-12-17T06:59:42;55.00;;;17.33;;
73266;SDS011;61495;53.400;7.608;2022-12-17T07:02:26;59.78;;;18.67;;
73266;SDS011;61495;53.400;7.608;2022-12-17T07:05:10;58.72;;;17.98;;
73266;SDS011;61495;53.400;7.608;2022-12-17T07:10:42;48.00;;;14.38;;
73266;SDS011;61495;53.400;7.608;2022-12-17T07:13:27;45.72;;;16.20;;
73266;SDS011;61495;53.400;7.608;2022-12-17T07:16:11;49.45;;;16.20;;
73266;SDS011;61495;53.400;7.608;2022-12-17T07:18:55;49.47;;;15.95;;
73266;SDS011;61495;53.400;7.608;2022-12-17T07:21:39;57.30;;;17.60;;
73266;SDS011;61495;53.400;7.608;2022-12-17T07:24:23;54.35;;;18.85;;
73266;SDS011;61495;53.400;7.608;2022-12-17T07:27:07;50.90;;;17.08;;
73266;SDS011;61495;53.400;7.608;2022-12-17T07:29:52;56.30;;;17.25;;
73266;SDS011;61495;53.400;7.608;2022-12-17T07:35:20;53.08;;;15.00;;
73266;SDS011;61495;53.400;7.608;2022-12-17T07:38:04;44.15;;;14.95;;
73266;SDS011;61495;53.400;7.608;2022-12-17T07:40:48;49.03;;;17.63;;
73266;SDS011;61495;53.400;7.608;2022-12-17T07:43:32;52.95;;;17.92;;
73266;SDS011;61495;53.400;7.608;2022-12-17T07:46:16;54.95;;;16.95;;
73266;SDS011;61495;53.400;7.608;2022-12-17T07:49:01;58.35;;;17.67;;
73266;SDS011;61495;53.400;7.608;2022-12-17T07:54:29;47.47;;;13.43;;
73266;SDS011;61495;53.400;7.608;2022-12-17T07:57:13;47.72;;;16.05;;
73266;SDS011;61495;53.400;7.608;2022-12-17T07:59:57;54.83;;;14.85;;
73266;SDS011;61495;53.400;7.608;2022-12-17T08:05:25;48.25;;;14.32;;
73266;SDS011;61495;53.400;7.608;2022-12-17T08:08:10;50.28;;;16.52;;
73266;SDS011;61495;53.400;7.608;2022-12-17T08:10:55;53.60;;;15.82;;
73266;SDS011;61495;53.400;7.608;2022-12-17T08:13:39;52.50;;;15.65;;
73266;SDS011;61495;53.400;7.608;2022-12-17T08:16:23;52.10;;;15.60;;
73266;SDS011;61495;53.400;7.608;2022-12-17T08:19:07;59.55;;;16.73;;
73266;SDS011;61495;53.400;7.608;2022-12-17T08:24:35;43.92;;;14.75;;
73266;SDS011;61495;53.400;7.608;2022-12-17T08:30:03;39.45;;;13.25;;
73266;SDS011;61495;53.400;7.608;2022-12-17T08:32:48;46.30;;;15.10;;
73266;SDS011;61495;53.400;7.608;2022-12-17T08:35:32;44.60;;;13.68;;
73266;SDS011;61495;53.400;7.608;2022-12-17T08:38:17;40.83;;;13.23;;
73266;SDS011;61495;53.400;7.608;2022-12-17T08:41:00;42.80;;;15.05;;
73266;SDS011;61495;53.400;7.608;2022-12-17T08:43:45;44.90;;;15.63;;
73266;SDS011;61495;53.400;7.608;2022-12-17T08:46:29;40.97;;;13.45;;
73266;SDS011;61495;53.400;7.608;2022-12-17T08:49:13;50.15;;;15.05;;
73266;SDS011;61495;53.400;7.608;2022-12-17T08:52:16;40.90;;;14.40;;
73266;SDS011;61495;53.400;7.608;2022-12-17T08:55:00;50.05;;;15.20;;
73266;SDS011;61495;53.400;7.608;2022-12-17T08:57:51;45.45;;;14.98;;
73266;SDS011;61495;53.400;7.608;2022-12-17T09:00:39;39.67;;;14.70;;
73266;SDS011;61495;53.400;7.608;2022-12-17T09:03:23;49.20;;;15.25;;
73266;SDS011;61495;53.400;7.608;2022-12-17T09:06:08;43.35;;;14.07;;
73266;SDS011;61495;53.400;7.608;2022-12-17T09:09:12;45.90;;;13.75;;
73266;SDS011;61495;53.400;7.608;2022-12-17T09:14:39;47.85;;;13.65;;
73266;SDS011;61495;53.400;7.608;2022-12-17T09:17:23;52.22;;;14.60;;
73266;SDS011;61495;53.400;7.608;2022-12-17T09:20:08;41.75;;;13.35;;
73266;SDS011;61495;53.400;7.608;2022-12-17T09:22:52;40.10;;;14.88;;
73266;SDS011;61495;53.400;7.608;2022-12-17T09:28:20;40.25;;;12.20;;
73266;SDS011;61495;53.400;7.608;2022-12-17T09:31:15;30.48;;;11.82;;
73266;SDS011;61495;53.400;7.608;2022-12-17T09:33:59;40.15;;;11.80;;
73266;SDS011;61495;53.400;7.608;2022-12-17T09:36:43;35.42;;;14.38;;
73266;SDS011;61495;53.400;7.608;2022-12-17T09:39:27;38.80;;;12.82;;
73266;SDS011;61495;53.400;7.608;2022-12-17T09:42:24;35.55;;;12.50;;
73266;SDS011;61495;53.400;7.608;2022-12-17T09:45:30;44.78;;;13.60;;
73266;SDS011;61495;53.400;7.608;2022-12-17T09:48:42;39.92;;;13.35;;
73266;SDS011;61495;53.400;7.608;2022-12-17T09:51:35;40.90;;;12.95;;
73266;SDS011;61495;53.400;7.608;2022-12-17T09:57:12;38.13;;;12.13;;
73266;SDS011;61495;53.400;7.608;2022-12-17T10:00:01;43.88;;;13.52;;
73266;SDS011;61495;53.400;7.608;2022-12-17T10:02:52;37.35;;;12.63;;
73266;SDS011;61495;53.400;7.608;2022-12-17T10:05:36;37.05;;;12.95;;
73266;SDS011;61495;53.400;7.608;2022-12-17T10:08:23;36.00;;;14.18;;
73266;SDS011;61495;53.400;7.608;2022-12-17T10:14:03;42.55;;;13.02;;
73266;SDS011;61495;53.400;7.608;2022-12-17T10:16:54;40.40;;;14.45;;
73266;SDS011;61495;53.400;7.608;2022-12-17T10:19:38;36.03;;;12.82;;
73266;SDS011;61495;53.400;7.608;2022-12-17T10:22:25;35.50;;;12.45;;
73266;SDS011;61495;53.400;7.608;2022-12-17T10:25:14;35.13;;;13.35;;
73266;SDS011;61495;53.400;7.608;2022-12-17T10:28:08;38.28;;;12.88;;
73266;SDS011;61495;53.400;7.608;2022-12-17T10:30:55;38.83;;;12.48;;
73266;SDS011;61495;53.400;7.608;2022-12-17T10:33:39;42.25;;;12.98;;
73266;SDS011;61495;53.400;7.608;2022-12-17T10:36:24;38.03;;;13.23;;
73266;SDS011;61495;53.400;7.608;2022-12-17T10:39:19;40.80;;;12.57;;
73266;SDS011;61495;53.400;7.608;2022-12-17T10:42:19;45.70;;;14.30;;
73266;SDS011;61495;53.400;7.608;2022-12-17T10:48:02;43.83;;;13.38;;
73266;SDS011;61495;53.400;7.608;2022-12-17T10:53:30;40.90;;;10.90;;
73266;SDS011;61495;53.400;7.608;2022-12-17T10:56:21;42.15;;;13.70;;
73266;SDS011;61495;53.400;7.608;2022-12-17T10:59:23;41.13;;;13.35;;
73266;SDS011;61495;53.400;7.608;2022-12-17T11:02:21;46.70;;;14.48;;
73266;SDS011;61495;53.400;7.608;2022-12-17T11:05:27;38.10;;;13.38;;
73266;SDS011;61495;53.400;7.608;2022-12-17T11:08:17;46.03;;;13.65;;
73266;SDS011;61495;53.400;7.608;2022-12-17T11:11:01;49.38;;;15.40;;
73266;SDS011;61495;53.400;7.608;2022-12-17T11:13:49;41.58;;;13.60;;
73266;SDS011;61495;53.400;7.608;2022-12-17T11:17:08;44.97;;;14.35;;
73266;SDS011;61495;53.400;7.608;2022-12-17T11:19:49;37.08;;;12.00;;
73266;SDS011;61495;53.400;7.608;2022-12-17T11:22:53;40.75;;;12.55;;
73266;SDS011;61495;53.400;7.608;2022-12-17T11:28:37;37.53;;;11.77;;
73266;SDS011;61495;53.400;7.608;2022-12-17T11:31:25;42.70;;;12.85;;
73266;SDS011;61495;53.400;7.608;2022-12-17T11:34:28;41.90;;;12.38;;
73266;SDS011;61495;53.400;7.608;2022-12-17T11:37:17;38.60;;;13.52;;
73266;SDS011;61495;53.400;7.608;2022-12-17T11:46:08;41.75;;;12.82;;
73266;SDS011;61495;53.400;7.608;2022-12-17T11:49:27;41.85;;;13.45;;
73266;SDS011;61495;53.400;7.608;2022-12-17T11:55:53;35.47;;;12.38;;
73266;SDS011;61495;53.400;7.608;2022-12-17T11:58:30;42.88;;;12.10;;
73266;SDS011;61495;53.400;7.608;2022-12-17T12:04:37;30.60;;;9.50;;
73266;SDS011;61495;53.400;7.608;2022-12-17T12:07:37;34.38;;;10.38;;
73266;SDS011;61495;53.400;7.608;2022-12-17T12:10:32;29.80;;;10.50;;
73266;SDS011;61495;53.400;7.608;2022-12-17T12:16:31;37.75;;;10.70;;
73266;SDS011;61495;53.400;7.608;2022-12-17T12:19:24;37.30;;;11.52;;
73266;SDS011;61495;53.400;7.608;2022-12-17T12:22:19;30.73;;;11.73;;
73266;SDS011;61495;53.400;7.608;2022-12-17T12:28:28;38.42;;;12.23;;
73266;SDS011;61495;53.400;7.608;2022-12-17T12:31:41;39.83;;;12.88;;
73266;SDS011;61495;53.400;7.608;2022-12-17T12:34:35;36.00;;;11.38;;
73266;SDS011;61495;53.400;7.608;2022-12-17T12:37:21;36.05;;;12.25;;
73266;SDS011;61495;53.400;7.608;2022-12-17T12:46:09;33.13;;;10.13;;
73266;SDS011;61495;53.400;7.608;2022-12-17T12:49:04;33.97;;;10.68;;
73266;SDS011;61495;53.400;7.608;2022-12-17T12:51:56;37.95;;;12.43;;
73266;SDS011;61495;53.400;7.608;2022-12-17T12:57:33;35.72;;;11.88;;
73266;SDS011;61495;53.400;7.608;2022-12-17T13:00:27;38.58;;;12.18;;
73266;SDS011;61495;53.400;7.608;2022-12-17T13:11:40;29.67;;;11.52;;
73266;SDS011;61495;53.400;7.608;2022-12-17T13:22:09;31.15;;;10.65;;
73266;SDS011;61495;53.400;7.608;2022-12-17T13:29:55;33.22;;;10.73;;
73266;SDS011;61495;53.400;7.608;2022-12-17T13:35:28;34.20;;;12.63;;
73266;SDS011;61495;53.400;7.608;2022-12-17T13:38:20;34.83;;;11.30;;
73266;SDS011;61495;53.400;7.608;2022-12-17T13:41:09;34.30;;;12.57;;
73266;SDS011;61495;53.400;7.608;2022-12-17T13:43:43;34.90;;;12.70;;
73266;SDS011;61495;53.400;7.608;2022-12-17T13:51:22;37.47;;;12.50;;
73266;SDS011;61495;53.400;7.608;2022-12-17T13:54:13;30.98;;;10.32;;
73266;SDS011;61495;53.400;7.608;2022-12-17T13:56:39;30.17;;;10.68;;
73266;SDS011;61495;53.400;7.608;2022-12-17T14:01:30;35.73;;;11.33;;
73266;SDS011;61495;53.400;7.608;2022-12-17T14:06:35;28.70;;;10.07;;
73266;SDS011;61495;53.400;7.608;2022-12-17T14:09:02;34.33;;;12.23;;
73266;SDS011;61495;53.400;7.608;2022-12-17T14:14:19;33.72;;;11.95;;
73266;SDS011;61495;53.400;7.608;2022-12-17T14:16:55;31.80;;;11.13;;
73266;SDS011;61495;53.400;7.608;2022-12-17T14:21:47;33.45;;;10.95;;
73266;SDS011;61495;53.400;7.608;2022-12-17T14:26:48;29.98;;;10.82;;
73266;SDS011;61495;53.400;7.608;2022-12-17T14:29:19;33.00;;;11.27;;
73266;SDS011;61495;53.400;7.608;2022-12-17T14:32:18;35.30;;;11.77;;
73266;SDS011;61495;53.400;7.608;2022-12-17T14:34:49;34.63;;;12.23;;
73266;SDS011;61495;53.400;7.608;2022-12-17T14:39:43;31.65;;;9.68;;
73266;SDS011;61495;53.400;7.608;2022-12-17T14:42:14;40.03;;;12.40;;
73266;SDS011;61495;53.400;7.608;2022-12-17T14:47:33;28.30;;;11.27;;
73266;SDS011;61495;53.400;7.608;2022-12-17T14:52:29;32.92;;;10.82;;
73266;SDS011;61495;53.400;7.608;2022-12-17T14:54:59;31.45;;;11.65;;
73266;SDS011;61495;53.400;7.608;2022-12-17T14:59:51;33.38;;;10.50;;
73266;SDS011;61495;53.400;7.608;2022-12-17T15:04:50;32.20;;;10.45;;
73266;SDS011;61495;53.400;7.608;2022-12-17T15:07:24;39.83;;;13.30;;
73266;SDS011;61495;53.400;7.608;2022-12-17T15:09:51;32.40;;;13.00;;
73266;SDS011;61495;53.400;7.608;2022-12-17T15:12:18;35.75;;;12.23;;
73266;SDS011;61495;53.400;7.608;2022-12-17T15:14:44;37.30;;;13.32;;
73266;SDS011;61495;53.400;7.608;2022-12-17T15:19:35;30.60;;;10.37;;
73266;SDS011;61495;53.400;7.608;2022-12-17T15:24:27;36.00;;;11.52;;
73266;SDS011;61495;53.400;7.608;2022-12-17T15:29:17;35.65;;;11.05;;
73266;SDS011;61495;53.400;7.608;2022-12-17T15:34:08;43.23;;;13.60;;
73266;SDS011;61495;53.400;7.608;2022-12-17T15:36:35;39.55;;;12.43;;
73266;SDS011;61495;53.400;7.608;2022-12-17T15:41:26;36.00;;;10.73;;
73266;SDS011;61495;53.400;7.608;2022-12-17T15:44:10;41.55;;;13.70;;
73266;SDS011;61495;53.400;7.608;2022-12-17T15:49:01;35.47;;;11.02;;
73266;SDS011;61495;53.400;7.608;2022-12-17T15:51:27;41.92;;;13.98;;
73266;SDS011;61495;53.400;7.608;2022-12-17T15:56:19;39.63;;;12.93;;
73266;SDS011;61495;53.400;7.608;2022-12-17T15:58:47;43.30;;;14.15;;
73266;SDS011;61495;53.400;7.608;2022-12-17T16:01:12;51.15;;;16.92;;
73266;SDS011;61495;53.400;7.608;2022-12-17T16:03:38;46.45;;;15.93;;
73266;SDS011;61495;53.400;7.608;2022-12-17T16:08:29;45.40;;;16.48;;
73266;SDS011;61495;53.400;7.608;2022-12-17T16:10:55;59.30;;;16.38;;
73266;SDS011;61495;53.400;7.608;2022-12-17T16:15:45;46.80;;;14.57;;
73266;SDS011;61495;53.400;7.608;2022-12-17T16:18:19;52.90;;;16.98;;
73266;SDS011;61495;53.400;7.608;2022-12-17T16:20:46;53.83;;;16.63;;
73266;SDS011;61495;53.400;7.608;2022-12-17T16:25:37;51.67;;;16.30;;
73266;SDS011;61495;53.400;7.608;2022-12-17T16:30:28;52.42;;;16.52;;
73266;SDS011;61495;53.400;7.608;2022-12-17T16:35:21;40.00;;;13.15;;
73266;SDS011;61495;53.400;7.608;2022-12-17T16:37:47;54.10;;;16.17;;
73266;SDS011;61495;53.400;7.608;2022-12-17T16:40:13;54.83;;;18.63;;
73266;SDS011;61495;53.400;7.608;2022-12-17T16:45:04;50.77;;;14.93;;
73266;SDS011;61495;53.400;7.608;2022-12-17T16:47:32;50.97;;;16.08;;
73266;SDS011;61495;53.400;7.608;2022-12-17T16:49:58;56.83;;;16.73;;
73266;SDS011;61495;53.400;7.608;2022-12-17T16:52:24;56.80;;;16.20;;
73266;SDS011;61495;53.400;7.608;2022-12-17T16:54:49;62.90;;;18.52;;
73266;SDS011;61495;53.400;7.608;2022-12-17T16:57:15;58.80;;;17.85;;
73266;SDS011;61495;53.400;7.608;2022-12-17T17:02:09;49.77;;;15.43;;
73266;SDS011;61495;53.400;7.608;2022-12-17T17:04:37;59.45;;;17.38;;
73266;SDS011;61495;53.400;7.608;2022-12-17T17:07:03;59.13;;;16.85;;
73266;SDS011;61495;53.400;7.608;2022-12-17T17:09:29;52.30;;;16.85;;
73266;SDS011;61495;53.400;7.608;2022-12-17T17:11:54;59.13;;;18.55;;
73266;SDS011;61495;53.400;7.608;2022-12-17T17:14:21;54.05;;;17.63;;
73266;SDS011;61495;53.400;7.608;2022-12-17T17:16:48;50.65;;;16.10;;
73266;SDS011;61495;53.400;7.608;2022-12-17T17:19:13;50.03;;;17.70;;
73266;SDS011;61495;53.400;7.608;2022-12-17T17:24:06;51.80;;;14.25;;
73266;SDS011;61495;53.400;7.608;2022-12-17T17:26:37;58.75;;;17.90;;
73266;SDS011;61495;53.400;7.608;2022-12-17T17:29:03;53.35;;;17.67;;
73266;SDS011;61495;53.400;7.608;2022-12-17T17:31:29;59.90;;;18.30;;
73266;SDS011;61495;53.400;7.608;2022-12-17T17:33:55;56.95;;;16.95;;
73266;SDS011;61495;53.400;7.608;2022-12-17T17:36:22;59.28;;;17.88;;
73266;SDS011;61495;53.400;7.608;2022-12-17T17:38:52;56.35;;;17.83;;
73266;SDS011;61495;53.400;7.608;2022-12-17T17:41:19;55.65;;;18.08;;
73266;SDS011;61495;53.400;7.608;2022-12-17T17:43:46;58.25;;;15.93;;
73266;SDS011;61495;53.400;7.608;2022-12-17T17:46:17;53.85;;;16.10;;
73266;SDS011;61495;53.400;7.608;2022-12-17T17:48:44;56.30;;;16.50;;
73266;SDS011;61495;53.400;7.608;2022-12-17T17:51:11;57.55;;;16.95;;
73266;SDS011;61495;53.400;7.608;2022-12-17T17:53:39;52.25;;;16.08;;
73266;SDS011;61495;53.400;7.608;2022-12-17T17:56:12;55.20;;;17.55;;
73266;SDS011;61495;53.400;7.608;2022-12-17T17:59:14;57.65;;;16.70;;
73266;SDS011;61495;53.400;7.608;2022-12-17T18:01:34;58.47;;;17.45;;
73266;SDS011;61495;53.400;7.608;2022-12-17T18:04:03;56.13;;;17.85;;
73266;SDS011;61495;53.400;7.608;2022-12-17T18:06:31;63.50;;;16.33;;
73266;SDS011;61495;53.400;7.608;2022-12-17T18:09:00;50.00;;;15.18;;
73266;SDS011;61495;53.400;7.608;2022-12-17T18:13:53;47.25;;;14.20;;
73266;SDS011;61495;53.400;7.608;2022-12-17T18:16:26;53.40;;;17.42;;
73266;SDS011;61495;53.400;7.608;2022-12-17T18:18:54;50.50;;;17.02;;
73266;SDS011;61495;53.400;7.608;2022-12-17T18:21:21;60.78;;;18.52;;
73266;SDS011;61495;53.400;7.608;2022-12-17T18:23:48;57.92;;;17.88;;
73266;SDS011;61495;53.400;7.608;2022-12-17T18:26:19;54.08;;;16.10;;
73266;SDS011;61495;53.400;7.608;2022-12-17T18:28:46;62.33;;;17.65;;
73266;SDS011;61495;53.400;7.608;2022-12-17T18:31:16;56.63;;;17.83;;
73266;SDS011;61495;53.400;7.608;2022-12-17T18:33:47;54.92;;;16.63;;
73266;SDS011;61495;53.400;7.608;2022-12-17T18:36:16;64.03;;;18.88;;
73266;SDS011;61495;53.400;7.608;2022-12-17T18:38:44;63.00;;;19.23;;
73266;SDS011;61495;53.400;7.608;2022-12-17T18:41:12;56.40;;;17.65;;
73266;SDS011;61495;53.400;7.608;2022-12-17T18:43:58;61.20;;;17.73;;
73266;SDS011;61495;53.400;7.608;2022-12-17T18:46:25;51.90;;;18.65;;
73266;SDS011;61495;53.400;7.608;2022-12-17T18:48:51;59.17;;;17.55;;
73266;SDS011;61495;53.400;7.608;2022-12-17T18:51:20;65.53;;;19.95;;
73266;SDS011;61495;53.400;7.608;2022-12-17T18:53:46;53.22;;;16.27;;
73266;SDS011;61495;53.400;7.608;2022-12-17T18:56:12;63.85;;;18.45;;
73266;SDS011;61495;53.400;7.608;2022-12-17T19:01:03;44.63;;;12.95;;
73266;SDS011;61495;53.400;7.608;2022-12-17T19:03:30;54.00;;;17.52;;
73266;SDS011;61495;53.400;7.608;2022-12-17T19:05:56;61.80;;;16.38;;
73266;SDS011;61495;53.400;7.608;2022-12-17T19:08:22;64.18;;;17.98;;
73266;SDS011;61495;53.400;7.608;2022-12-17T19:10:47;57.67;;;17.88;;
73266;SDS011;61495;53.400;7.608;2022-12-17T19:15:38;55.80;;;15.40;;
73266;SDS011;61495;53.400;7.608;2022-12-17T19:18:03;55.60;;;16.52;;
73266;SDS011;61495;53.400;7.608;2022-12-17T19:22:54;43.97;;;13.93;;
73266;SDS011;61495;53.400;7.608;2022-12-17T19:27:45;47.30;;;14.80;;
73266;SDS011;61495;53.400;7.608;2022-12-17T19:32:36;49.78;;;14.52;;
73266;SDS011;61495;53.400;7.608;2022-12-17T19:37:26;45.22;;;14.68;;
73266;SDS011;61495;53.400;7.608;2022-12-17T19:42:17;45.10;;;13.83;;
73266;SDS011;61495;53.400;7.608;2022-12-17T19:44:49;59.53;;;16.85;;
73266;SDS011;61495;53.400;7.608;2022-12-17T19:47:15;55.92;;;15.45;;
73266;SDS011;61495;53.400;7.608;2022-12-17T19:49:40;48.55;;;16.38;;
73266;SDS011;61495;53.400;7.608;2022-12-17T19:54:31;50.10;;;13.20;;
73266;SDS011;61495;53.400;7.608;2022-12-17T19:56:56;51.30;;;15.57;;
73266;SDS011;61495;53.400;7.608;2022-12-17T20:01:47;51.97;;;15.63;;